This is the latest recevied weather packets stored in our database for station/object IK3ZGB. If no packets are shown the sender has not sent any weather packets the latest 10 day(s).
| Time | Temp. | Humidity | Pressure | Rain* | Wind** | Luminosity | Snow |
|---|---|---|---|---|---|---|---|
| 1777883925 | 23.33° C | 52% | 1018.5 hPa | - | - | - | - |
| 1777883326 | 23.33° C | 52% | 1018.3 hPa | - | - | - | - |
| 1777882724 | 23.33° C | 53% | 1018.2 hPa | - | - | - | - |
| 1777882125 | 23.33° C | 54% | 1018.5 hPa | - | - | - | - |
| 1777881524 | 22.78° C | 54% | 1018.4 hPa | - | - | - | - |
| 1777880924 | 22.78° C | 55% | 1018.2 hPa | - | - | - | - |
| 1777880325 | 22.78° C | 55% | 1018 hPa | - | - | - | - |
| 1777879726 | 23.33° C | 54% | 1018.1 hPa | - | - | - | - |
| 1777879124 | 22.78° C | 55% | 1018.1 hPa | - | - | - | - |
| 1777878525 | 22.78° C | 56% | 1018 hPa | - | - | - | - |
| 1777877924 | 22.22° C | 57% | 1018 hPa | - | - | - | - |
| 1777877325 | 22.22° C | 57% | 1018.2 hPa | - | - | - | - |
| 1777876725 | 20.56° C | 58% | 1018.2 hPa | - | - | - | - |
| 1777876124 | 21.67° C | 57% | 1017.9 hPa | - | - | - | - |
| 1777875524 | 21.11° C | 55% | 1017.7 hPa | - | - | - | - |
| 1777874925 | 22.22° C | 54% | 1017.5 hPa | - | - | - | - |
| 1777874325 | 24.44° C | 53% | 1017.5 hPa | - | - | - | - |
| 1777873725 | 27.78° C | 52% | 1017.5 hPa | - | - | - | - |
| 1777873126 | 27.78° C | 52% | 1017.8 hPa | - | - | - | - |
| 1777872525 | 25° C | 54% | 1018.3 hPa | - | - | - | - |
| 1777871925 | 21.11° C | 60% | 1018.6 hPa | - | - | - | - |
| 1777871325 | 19.44° C | 65% | 1019 hPa | - | - | - | - |
| 1777870725 | 17.22° C | 68% | 1018.5 hPa | - | - | - | - |
| 1777870125 | 16.67° C | 68% | 1018.4 hPa | - | - | - | - |
| 1777869524 | 16.11° C | 69% | 1018.5 hPa | - | - | - | - |
* Rain since midnight (hover to see other rain measurements)
** Current wind speed in m/s (hover to see current wind gust speed)